Joslin Field Magic Valley Regional Airport Twin Falls US
ICAO: KTWF
IATA: TWF
Category: Medium
Scheduled Services: Yes

Elevation: 4154 ft
TransAlt. 18000 ft.

Airport Communications:
TWIN FALLS APP/DEP:126.7
ASOS:135.025
CTAF:118.2
TWIN FALLS GND:121.7
BOISE RDO:122.25
TWIN FALLS TWR:118.2
UNICOM:122.95

KTWF Zoom In..

If you have problems with the map follow the link
https://www.worldairports.se/pages/airport.php?
ICAO=KTWF

Runways:

(A) RW 07 length 8703 ft width 150 ft
---- / hdg 75

(B) RW 12 length 3224 ft width 75 ft
---- / hdg 120

(C) RW 25 length 8703 ft width 150 ft
ILS 108.30 / hdg 255

(D) RW 30 length 3224 ft width 75 ft
---- / hdg 300

Location; KTWF
Day. 06 / Time. 11.53 Zulu
* Altimeter: 30.23
* Temperature: -02° c. -28.4°f.
* Wind from: KTW° Speed F kn.
Dewpoint: -02° c.
Visibility: 1/4 Statute Miles.
Conditions: Freezing fog.

KTWF 061153Z AUTO 11006KT 1/4SM FZFG VV002 M02/M02 A3023 RMK AO2 SLP244 I1004 I6008 T10171017 10006 21017 58001


Wind From KTW°
Speed F kn.

 
 
jpsmedia worldairports.se 2019   terms of use